createdAt,value
2023-04-15T00:01:01.300Z,100972.03
2023-04-15T00:03:28.564Z,100981.91
2023-04-15T00:05:55.378Z,100979.41
2023-04-15T00:08:21.983Z,100976.72
2023-04-15T00:10:49.410Z,100978.56
2023-04-15T00:13:16.594Z,100976.00
2023-04-15T00:15:43.379Z,100980.69
2023-04-15T00:18:10.203Z,100972.66
2023-04-15T00:20:37.144Z,100974.50
2023-04-15T00:23:04.204Z,100970.09
2023-04-15T00:25:31.094Z,100972.78
2023-04-15T00:27:57.779Z,100973.78
2023-04-15T00:30:24.309Z,100968.41
2023-04-15T00:32:54.031Z,100974.78
2023-04-15T00:35:20.806Z,100972.94
2023-04-15T00:37:47.452Z,100971.25
2023-04-15T00:40:17.813Z,100970.44
2023-04-15T00:42:45.470Z,100969.59
2023-04-15T00:45:13.015Z,100973.41
2023-04-15T00:47:42.244Z,100976.09
2023-04-15T00:50:09.606Z,100979.59
2023-04-15T00:52:36.432Z,100975.25
2023-04-15T00:55:04.748Z,100980.75
2023-04-15T00:57:31.716Z,100982.47
2023-04-15T00:59:58.281Z,100984.44
2023-04-15T01:02:25.047Z,100983.59
2023-04-15T01:04:52.042Z,100984.44
2023-04-15T01:07:18.858Z,100978.41
2023-04-15T01:09:45.733Z,100986.44
2023-04-15T01:12:14.225Z,100984.72
2023-04-15T01:14:41.192Z,100985.72
2023-04-15T01:17:07.689Z,100985.06
2023-04-15T01:19:34.319Z,100978.81
2023-04-15T01:22:02.898Z,100974.47
2023-04-15T01:24:31.816Z,100972.78
2023-04-15T01:26:58.556Z,100976.47
2023-04-15T01:29:25.202Z,100975.63
2023-04-15T01:31:53.191Z,100974.91
2023-04-15T01:34:19.800Z,100980.28
2023-04-15T01:36:46.834Z,100983.13
2023-04-15T01:39:13.409Z,100974.38
2023-04-15T01:41:40.846Z,100975.22
2023-04-15T01:44:08.036Z,100973.53
2023-04-15T01:46:36.309Z,100970.16
2023-04-15T01:49:03.015Z,100979.19
2023-04-15T01:51:29.562Z,100978.34
2023-04-15T01:53:58.878Z,100987.41
2023-04-15T01:56:25.524Z,100985.72
2023-04-15T01:58:52.332Z,100993.88
2023-04-15T02:01:22.283Z,100993.88
2023-04-15T02:03:49.046Z,100991.38
2023-04-15T02:06:15.882Z,100988.69
2023-04-15T02:08:42.375Z,100997.75
2023-04-15T02:11:09.301Z,101003.09
2023-04-15T02:13:36.273Z,100997.88
2023-04-15T02:16:03.799Z,101003.22
2023-04-15T02:18:30.557Z,100999.03
2023-04-15T02:20:58.768Z,101000.84
2023-04-15T02:23:25.812Z,100996.47
2023-04-15T02:25:53.704Z,101000.16
2023-04-15T02:28:21.369Z,100996.75
2023-04-15T02:30:52.700Z,100999.44
2023-04-15T02:33:19.670Z,101005.81
2023-04-15T02:35:46.560Z,101004.97
2023-04-15T02:38:14.297Z,101015.03
2023-04-15T02:40:40.980Z,101023.06
2023-04-15T02:43:07.559Z,101026.72
2023-04-15T02:45:34.168Z,101025.03
2023-04-15T02:48:06.083Z,101024.34
2023-04-15T02:50:32.833Z,101034.19
2023-04-15T02:53:01.284Z,101034.19
2023-04-15T02:55:28.638Z,101037.03
2023-04-15T02:57:55.673Z,101039.88
2023-04-15T03:00:22.490Z,101038.03
2023-04-15T03:02:52.442Z,101041.72
2023-04-15T03:05:19.148Z,101042.69
2023-04-15T03:07:45.784Z,101039.28
2023-04-15T03:10:12.436Z,101039.28
2023-04-15T03:12:39.498Z,101044.78
2023-04-15T03:15:06.815Z,101041.25
2023-04-15T03:17:33.448Z,101040.59
2023-04-15T03:20:01.351Z,101047.78
2023-04-15T03:22:27.859Z,101048.75
2023-04-15T03:24:54.362Z,101053.28
2023-04-15T03:27:21.045Z,101048.91
2023-04-15T03:29:47.549Z,101056.94
2023-04-15T03:32:15.235Z,101050.19
2023-04-15T03:34:42.253Z,101055.56
2023-04-15T03:37:08.740Z,101063.88
2023-04-15T03:39:35.729Z,101059.50
2023-04-15T03:42:03.422Z,101065.81
2023-04-15T03:44:30.541Z,101068.44
2023-04-15T03:46:57.079Z,101067.03
2023-04-15T03:49:24.541Z,101065.56
2023-04-15T03:51:51.255Z,101074.00
2023-04-15T03:54:17.794Z,101077.25
2023-04-15T03:56:44.310Z,101082.31
2023-04-15T03:59:11.425Z,101085.72
2023-04-15T04:01:37.956Z,101087.22
2023-04-15T04:04:04.677Z,101089.78
2023-04-15T04:06:31.599Z,101086.94
2023-04-15T04:08:58.101Z,101091.31
2023-04-15T04:11:24.695Z,101092.00
2023-04-15T04:13:51.232Z,101094.53
2023-04-15T04:16:17.869Z,101093.69
2023-04-15T04:18:44.455Z,101101.59
2023-04-15T04:21:11.630Z,101098.78
2023-04-15T04:23:38.151Z,101106.81
2023-04-15T04:26:04.680Z,101104.13
2023-04-15T04:28:31.506Z,101111.34
2023-04-15T04:30:58.039Z,101102.59
2023-04-15T04:33:24.671Z,101105.56
2023-04-15T04:35:51.549Z,101110.38
2023-04-15T04:38:18.023Z,101123.28
2023-04-15T04:40:44.571Z,101122.00
2023-04-15T04:43:11.190Z,101124.44
2023-04-15T04:45:37.722Z,101134.47
2023-04-15T04:48:07.077Z,101134.19
2023-04-15T04:50:34.214Z,101139.25
2023-04-15T04:53:01.628Z,101142.34
2023-04-15T04:55:28.384Z,101146.41
2023-04-15T04:57:55.223Z,101154.56
2023-04-15T05:00:21.762Z,101154.28
2023-04-15T05:02:48.621Z,101167.09
2023-04-15T05:05:15.389Z,101162.44
2023-04-15T05:07:42.132Z,101163.97
2023-04-15T05:10:09.190Z,101172.72
2023-04-15T05:12:37.366Z,101172.56
2023-04-15T05:15:04.669Z,101176.09
2023-04-15T05:17:31.971Z,101189.38
2023-04-15T05:19:58.619Z,101184.84
2023-04-15T05:22:25.341Z,101196.44
2023-04-15T05:24:51.828Z,101197.28
2023-04-15T05:27:19.155Z,101199.78
2023-04-15T05:29:45.852Z,101209.41
2023-04-15T05:32:12.483Z,101217.47
2023-04-15T05:34:38.967Z,101211.25
2023-04-15T05:37:05.877Z,101206.88
2023-04-15T05:39:32.768Z,101214.09
2023-04-15T05:41:59.904Z,101227.34
2023-04-15T05:44:26.820Z,101225.34
2023-04-15T05:46:53.417Z,101228.91
2023-04-15T05:49:19.905Z,101240.31
2023-04-15T05:51:47.894Z,101247.53
2023-04-15T05:54:14.466Z,101253.75
2023-04-15T05:56:41.164Z,101260.69
2023-04-15T05:59:07.690Z,101256.00
2023-04-15T06:01:34.925Z,101261.06
2023-04-15T06:04:01.888Z,101262.06
2023-04-15T06:06:28.593Z,101270.13
2023-04-15T06:08:55.928Z,101277.03
2023-04-15T06:11:22.506Z,101285.06
2023-04-15T06:13:49.195Z,101281.72
2023-04-15T06:16:15.767Z,101290.59
2023-04-15T06:18:42.395Z,101294.72
2023-04-15T06:21:08.916Z,101299.81
2023-04-15T06:23:41.162Z,101299.53
2023-04-15T06:26:07.970Z,101314.47
2023-04-15T06:28:34.615Z,101307.97
2023-04-15T06:31:01.984Z,101307.69
2023-04-15T06:33:28.685Z,101317.25
2023-04-15T06:35:55.381Z,101317.97
2023-04-15T06:38:21.978Z,101321.22
2023-04-15T06:40:48.453Z,101325.59
2023-04-15T06:43:15.385Z,101328.81
2023-04-15T06:45:41.961Z,101334.19
2023-04-15T06:48:08.528Z,101343.78
2023-04-15T06:50:35.710Z,101340.97
2023-04-15T06:53:03.019Z,101340.81
2023-04-15T06:55:29.748Z,101349.72
2023-04-15T06:57:56.301Z,101351.28
2023-04-15T07:00:22.949Z,101359.34
2023-04-15T07:02:49.505Z,101364.53
2023-04-15T07:05:16.513Z,101356.47
2023-04-15T07:07:43.166Z,101368.94
2023-04-15T07:10:10.121Z,101371.47
2023-04-15T07:12:36.667Z,101371.47
2023-04-15T07:15:03.712Z,101374.16
2023-04-15T07:17:30.274Z,101379.38
2023-04-15T07:19:56.935Z,101386.59
2023-04-15T07:22:23.582Z,101383.91
2023-04-15T07:24:50.260Z,101390.28
2023-04-15T07:27:17.956Z,101406.41
2023-04-15T07:29:44.478Z,101392.97
2023-04-15T07:32:11.330Z,101408.94
2023-04-15T07:34:38.129Z,101410.78
2023-04-15T07:37:04.664Z,101416.16
2023-04-15T07:39:31.224Z,101413.63
2023-04-15T07:41:59.055Z,101415.47
2023-04-15T07:44:27.131Z,101420.13
2023-04-15T07:46:53.981Z,101422.13
2023-04-15T07:49:21.520Z,101432.31
2023-04-15T07:51:48.899Z,101436.97
2023-04-15T07:54:15.783Z,101438.81
2023-04-15T07:56:42.878Z,101435.13
2023-04-15T07:59:10.035Z,101441.50
2023-04-15T08:01:36.873Z,101452.97
2023-04-15T08:04:03.806Z,101451.41
2023-04-15T08:06:30.987Z,101461.03
2023-04-15T08:08:57.726Z,101465.56
2023-04-15T08:11:24.880Z,101470.78
2023-04-15T08:13:52.503Z,101469.78
2023-04-15T08:16:23.424Z,101476.81
2023-04-15T08:18:52.075Z,101480.22
2023-04-15T08:21:20.162Z,101476.53
2023-04-15T08:23:49.419Z,101481.63
2023-04-15T08:26:16.857Z,101480.63
2023-04-15T08:28:45.448Z,101492.94
2023-04-15T08:31:14.060Z,101486.56
2023-04-15T08:33:40.705Z,101488.13
2023-04-15T08:36:07.701Z,101495.88
2023-04-15T08:38:34.676Z,101497.59
2023-04-15T08:41:07.320Z,101501.81
2023-04-15T08:43:35.829Z,101506.06
2023-04-15T08:46:04.320Z,101503.22
2023-04-15T08:48:35.710Z,101507.47
2023-04-15T08:51:03.066Z,101511.72
2023-04-15T08:53:30.528Z,101514.25
2023-04-15T08:56:02.414Z,101516.78
2023-04-15T08:58:29.606Z,101521.03
2023-04-15T09:00:57.281Z,101526.13
2023-04-15T09:03:24.844Z,101530.34
2023-04-15T09:05:53.303Z,101535.44
2023-04-15T09:08:19.926Z,101538.00
2023-04-15T09:10:46.742Z,101542.06
2023-04-15T09:13:13.978Z,101536.53
2023-04-15T09:15:40.501Z,101536.25
2023-04-15T09:18:07.170Z,101550.38
2023-04-15T09:20:40.933Z,101557.19
2023-04-15T09:23:14.052Z,101562.28
2023-04-15T09:25:44.739Z,101563.53
2023-04-15T09:28:11.476Z,101569.63
2023-04-15T09:30:38.087Z,101581.06
2023-04-15T09:33:08.969Z,101570.88
2023-04-15T09:35:36.674Z,101571.44
2023-04-15T09:38:05.458Z,101578.19
2023-04-15T09:40:42.024Z,101579.59
2023-04-15T09:43:10.723Z,101587.09
2023-04-15T09:45:37.521Z,101594.00
2023-04-15T09:48:26.839Z,101594.44
2023-04-15T09:50:57.580Z,101591.28
2023-04-15T09:53:25.290Z,101588.97
2023-04-15T09:55:57.339Z,101596.59
2023-04-15T09:58:26.498Z,101606.91
2023-04-15T10:00:54.681Z,101606.50
2023-04-15T10:03:29.391Z,101611.44
2023-04-15T10:05:57.219Z,101610.13
2023-04-15T10:08:30.706Z,101611.53
2023-04-15T10:10:57.916Z,101609.38
2023-04-15T10:13:26.869Z,101610.94
2023-04-15T10:15:59.435Z,101616.03
2023-04-15T10:18:27.732Z,101621.13
2023-04-15T10:20:55.150Z,101620.81
2023-04-15T10:23:23.343Z,101629.59
2023-04-15T10:25:52.443Z,101628.44
2023-04-15T10:28:20.256Z,101625.59
2023-04-15T10:30:47.954Z,101632.66
2023-04-15T10:33:16.224Z,101635.22
2023-04-15T10:35:43.487Z,101637.75
2023-04-15T10:38:46.761Z,101638.59
2023-04-15T10:41:21.850Z,101636.44
2023-04-15T10:44:05.150Z,101647.94
2023-04-15T10:46:44.116Z,101636.84
2023-04-15T10:49:16.295Z,101646.47
2023-04-15T10:51:59.026Z,101645.31
2023-04-15T10:54:25.560Z,101654.81
2023-04-15T10:57:02.774Z,101649.97
2023-04-15T10:59:33.184Z,101651.34
2023-04-15T11:02:07.359Z,101658.25
2023-04-15T11:04:53.545Z,101658.81
2023-04-15T11:07:44.681Z,101664.72
2023-04-15T11:10:13.953Z,101660.91
2023-04-15T11:12:41.951Z,101669.50
2023-04-15T11:15:27.196Z,101668.66
2023-04-15T11:17:53.794Z,101669.91
2023-04-15T11:20:20.666Z,101675.28
2023-04-15T11:23:14.018Z,101679.50
2023-04-15T11:25:41.810Z,101679.22
2023-04-15T11:28:08.660Z,101692.22
2023-04-15T11:30:37.434Z,101694.63
2023-04-15T11:33:09.175Z,101702.41
2023-04-15T11:35:36.400Z,101705.81
2023-04-15T11:38:11.903Z,101715.47
2023-04-15T11:40:38.849Z,101713.31
2023-04-15T11:43:20.308Z,101710.44
2023-04-15T11:46:01.220Z,101719.06
2023-04-15T11:48:29.878Z,101727.53
2023-04-15T11:51:07.208Z,101717.44
2023-04-15T11:53:37.118Z,101722.38
2023-04-15T11:56:03.878Z,101722.75
2023-04-15T11:58:30.470Z,101719.75
2023-04-15T12:01:01.261Z,101728.38
2023-04-15T12:03:30.125Z,101726.22
2023-04-15T12:06:06.259Z,101725.91
2023-04-15T12:09:00.745Z,101717.66
2023-04-15T12:11:54.477Z,101727.97
2023-04-15T12:14:28.958Z,101733.91
2023-04-15T12:17:04.801Z,101744.22
2023-04-15T12:19:43.102Z,101736.97
2023-04-15T12:22:11.486Z,101741.88
2023-04-15T12:24:39.322Z,101750.69
2023-04-15T12:27:07.937Z,101751.38
2023-04-15T12:29:36.300Z,101754.59
2023-04-15T12:32:07.853Z,101763.88
2023-04-15T12:34:36.424Z,101759.81
2023-04-15T12:37:05.758Z,101764.88
2023-04-15T12:39:35.945Z,101765.75
2023-04-15T12:42:06.242Z,101773.13
2023-04-15T12:44:33.377Z,101779.53
2023-04-15T12:47:00.468Z,101767.72
2023-04-15T12:49:27.177Z,101787.47
2023-04-15T12:51:55.917Z,101777.53
2023-04-15T12:54:23.003Z,101779.53
2023-04-15T12:56:50.705Z,101796.03
2023-04-15T12:59:20.288Z,101805.16
2023-04-15T13:01:48.393Z,101803.59
2023-04-15T13:04:16.481Z,101801.22
2023-04-15T13:06:43.719Z,101806.06
2023-04-15T13:09:10.281Z,101800.00
2023-04-15T13:11:37.085Z,101809.22
2023-04-15T13:14:09.449Z,101819.19
2023-04-15T13:16:36.170Z,101820.19
2023-04-15T13:19:03.954Z,101818.50
2023-04-15T13:21:35.276Z,101819.50
2023-04-15T13:24:02.858Z,101823.19
2023-04-15T13:26:29.661Z,101824.03
2023-04-15T13:28:56.668Z,101826.75
2023-04-15T13:31:23.242Z,101816.13
2023-04-15T13:33:49.877Z,101833.44
2023-04-15T13:36:16.536Z,101831.94
2023-04-15T13:38:43.081Z,101841.16
2023-04-15T13:41:09.699Z,101831.50
2023-04-15T13:43:36.621Z,101848.88
2023-04-15T13:46:03.353Z,101846.31
2023-04-15T13:48:30.072Z,101858.13
2023-04-15T13:50:56.698Z,101847.47
2023-04-15T13:53:33.870Z,101865.81
2023-04-15T13:56:07.213Z,101872.22
2023-04-15T13:58:33.734Z,101871.34
2023-04-15T14:01:01.192Z,101871.50
2023-04-15T14:03:28.762Z,101877.06
2023-04-15T14:05:56.913Z,101872.66
2023-04-15T14:08:24.866Z,101895.25
2023-04-15T14:10:51.364Z,101893.53
2023-04-15T14:13:19.507Z,101893.72
2023-04-15T14:15:46.504Z,101896.41
2023-04-15T14:18:13.033Z,101905.47
2023-04-15T14:20:39.613Z,101893.84
2023-04-15T14:23:06.249Z,101902.78
2023-04-15T14:25:34.012Z,101904.63
2023-04-15T14:28:01.671Z,101915.41
2023-04-15T14:30:28.293Z,101913.72
2023-04-15T14:32:54.887Z,101908.34
2023-04-15T14:35:21.546Z,101915.59
2023-04-15T14:37:48.085Z,101919.28
2023-04-15T14:40:14.633Z,101921.97
2023-04-15T14:42:41.166Z,101920.13
2023-04-15T14:45:08.320Z,101920.25
2023-04-15T14:47:34.912Z,101925.66
2023-04-15T14:50:02.370Z,101910.31
2023-04-15T14:52:29.008Z,101931.22
2023-04-15T14:54:55.653Z,101923.97
2023-04-15T14:57:22.210Z,101927.66
2023-04-15T14:59:48.722Z,101937.59
2023-04-15T15:02:26.293Z,101946.66
2023-04-15T15:05:03.555Z,101950.25
2023-04-15T15:07:30.294Z,101945.81
2023-04-15T15:09:56.874Z,101952.22
2023-04-15T15:12:23.557Z,101950.50
2023-04-15T15:14:50.320Z,101954.94
2023-04-15T15:17:16.961Z,101964.00
2023-04-15T15:19:44.303Z,101961.41
2023-04-15T15:22:10.822Z,101958.72
2023-04-15T15:24:37.351Z,101966.81
2023-04-15T15:27:03.894Z,101975.06
2023-04-15T15:29:30.494Z,101975.06
2023-04-15T15:31:57.062Z,101983.16
2023-04-15T15:34:23.631Z,101978.75
2023-04-15T15:36:50.275Z,101979.63
2023-04-15T15:39:16.821Z,101985.28
2023-04-15T15:41:43.415Z,101984.44
2023-04-15T15:44:09.967Z,101988.16
2023-04-15T15:46:36.597Z,101991.97
2023-04-15T15:49:04.176Z,102002.75
2023-04-15T15:51:32.002Z,102004.63
2023-04-15T15:53:58.638Z,102005.47
2023-04-15T15:56:25.248Z,102023.47
2023-04-15T15:58:51.824Z,102012.84
2023-04-15T16:01:18.577Z,102013.81
2023-04-15T16:03:45.342Z,102015.84
2023-04-15T16:06:12.001Z,102017.81
2023-04-15T16:08:38.508Z,102029.59
2023-04-15T16:11:05.125Z,102027.06
2023-04-15T16:13:31.790Z,102030.72
2023-04-15T16:15:58.453Z,102034.44
2023-04-15T16:18:25.137Z,102031.03
2023-04-15T16:20:51.694Z,102044.53
2023-04-15T16:23:20.078Z,102046.38
2023-04-15T16:25:46.594Z,102045.50
2023-04-15T16:28:25.778Z,102056.88
2023-04-15T16:30:53.905Z,102050.34
2023-04-15T16:33:20.664Z,102057.16
2023-04-15T16:35:47.270Z,102063.97
2023-04-15T16:38:13.991Z,102063.38
2023-04-15T16:40:40.571Z,102054.03
2023-04-15T16:43:08.155Z,102054.31
2023-04-15T16:45:34.765Z,102055.47
2023-04-15T16:48:01.411Z,102064.84
2023-04-15T16:50:28.134Z,102067.81
2023-04-15T16:52:54.948Z,102074.19
2023-04-15T16:55:21.733Z,102063.41
2023-04-15T16:58:00.869Z,102073.47
2023-04-15T17:00:30.045Z,102071.03
2023-04-15T17:02:56.725Z,102076.72
2023-04-15T17:05:23.444Z,102080.50
2023-04-15T17:07:50.022Z,102078.81
2023-04-15T17:10:16.552Z,102080.66
2023-04-15T17:12:43.067Z,102089.72
2023-04-15T17:15:10.211Z,102105.88
2023-04-15T17:17:36.812Z,102106.03
2023-04-15T17:20:04.209Z,102116.78
2023-04-15T17:22:30.780Z,102108.56
2023-04-15T17:24:57.306Z,102108.72
2023-04-15T17:27:24.819Z,102107.72
2023-04-15T17:29:51.437Z,102111.41
2023-04-15T17:32:18.111Z,102115.69
2023-04-15T17:34:50.057Z,102118.09
2023-04-15T17:37:17.936Z,102114.13
2023-04-15T17:39:45.363Z,102120.94
2023-04-15T17:42:12.929Z,102121.69
2023-04-15T17:44:39.763Z,102124.94
2023-04-15T17:47:06.841Z,102124.69
2023-04-15T17:49:34.240Z,102120.81
2023-04-15T17:52:01.098Z,102127.78
2023-04-15T17:54:27.871Z,102124.09
2023-04-15T17:56:54.503Z,102128.38
2023-04-15T17:59:21.255Z,102138.16
2023-04-15T18:01:47.892Z,102138.00
2023-04-15T18:04:14.864Z,102133.44
2023-04-15T18:06:41.625Z,102134.34
2023-04-15T18:09:09.088Z,102136.03
2023-04-15T18:11:35.793Z,102141.25
2023-04-15T18:14:03.489Z,102145.53
2023-04-15T18:16:30.423Z,102146.22
2023-04-15T18:18:57.165Z,102144.25
2023-04-15T18:21:23.747Z,102146.69
2023-04-15T18:23:50.450Z,102149.06
2023-04-15T18:26:17.038Z,102151.50
2023-04-15T18:28:43.710Z,102161.16
2023-04-15T18:31:10.265Z,102169.09
2023-04-15T18:33:36.784Z,102163.56
2023-04-15T18:36:03.350Z,102166.13
2023-04-15T18:38:29.905Z,102169.50
2023-04-15T18:40:56.467Z,102170.38
2023-04-15T18:43:23.041Z,102172.91
2023-04-15T18:45:51.757Z,102179.16
2023-04-15T18:48:18.306Z,102187.09
2023-04-15T18:50:44.812Z,102187.09
2023-04-15T18:53:11.449Z,102187.09
2023-04-15T18:55:39.614Z,102197.88
2023-04-15T18:58:09.143Z,102200.56
2023-04-15T19:00:38.872Z,102196.91
2023-04-15T19:03:06.315Z,102201.31
2023-04-15T19:05:33.397Z,102198.59
2023-04-15T19:07:59.990Z,102201.31
2023-04-15T19:10:28.093Z,102211.25
2023-04-15T19:12:55.604Z,102215.63
2023-04-15T19:15:22.491Z,102219.19
2023-04-15T19:17:49.007Z,102232.66
2023-04-15T19:20:15.860Z,102225.72
2023-04-15T19:22:43.251Z,102223.16
2023-04-15T19:25:10.085Z,102221.44
2023-04-15T19:27:38.421Z,102222.44
2023-04-15T19:30:06.502Z,102230.66
2023-04-15T19:32:33.230Z,102225.41
2023-04-15T19:34:59.808Z,102235.34
2023-04-15T19:37:26.345Z,102239.06
2023-04-15T19:39:54.228Z,102246.25
2023-04-15T19:42:20.827Z,102241.75
2023-04-15T19:44:47.473Z,102242.59
2023-04-15T19:47:14.050Z,102238.06
2023-04-15T19:49:40.760Z,102249.69
2023-04-15T19:52:07.274Z,102240.75
2023-04-15T19:54:33.819Z,102252.38
2023-04-15T19:57:01.532Z,102246.97
2023-04-15T19:59:28.083Z,102247.84
2023-04-15T20:01:54.810Z,102245.13
2023-04-15T20:04:22.596Z,102243.28
2023-04-15T20:06:49.774Z,102240.59
2023-04-15T20:09:16.297Z,102245.88
2023-04-15T20:12:46.692Z,102252.09
2023-04-15T20:14:29.738Z,102246.72
2023-04-15T20:16:56.340Z,102252.94
2023-04-15T20:19:22.838Z,102251.09
2023-04-15T20:21:50.862Z,102250.25
2023-04-15T20:24:20.357Z,102251.09
2023-04-15T20:26:47.218Z,102250.25
2023-04-15T20:29:14.005Z,102250.25
2023-04-15T20:31:40.814Z,102253.06
2023-04-15T20:34:09.408Z,102252.09
2023-04-15T20:36:37.461Z,102260.03
2023-04-15T20:39:04.281Z,102250.25
2023-04-15T20:41:30.986Z,102252.09
2023-04-15T20:43:57.506Z,102252.09
2023-04-15T20:46:26.697Z,102254.91
2023-04-15T20:48:54.129Z,102257.78
2023-04-15T20:51:20.706Z,102254.22
2023-04-15T20:53:47.195Z,102256.91
2023-04-15T20:56:13.714Z,102255.22
2023-04-15T20:58:40.284Z,102257.03
2023-04-15T21:01:06.931Z,102258.88
2023-04-15T21:03:33.799Z,102263.44
2023-04-15T21:06:00.440Z,102253.66
2023-04-15T21:08:29.691Z,102262.59
2023-04-15T21:10:57.047Z,102261.72
2023-04-15T21:13:24.294Z,102263.59
2023-04-15T21:15:53.387Z,102264.56
2023-04-15T21:18:22.715Z,102265.44
2023-04-15T21:20:59.400Z,102265.44
2023-04-15T21:23:28.813Z,102272.50
2023-04-15T21:25:55.973Z,102266.28
2023-04-15T21:28:22.717Z,102270.81
2023-04-15T21:30:49.797Z,102280.59
2023-04-15T21:33:16.663Z,102275.38
2023-04-15T21:35:43.189Z,102270.81
2023-04-15T21:38:09.695Z,102279.75
2023-04-15T21:40:40.304Z,102279.75
2023-04-15T21:43:10.048Z,102277.06
2023-04-15T21:45:39.314Z,102287.00
2023-04-15T21:48:08.069Z,102287.00
2023-04-15T21:50:38.272Z,102292.38
2023-04-15T21:53:08.136Z,102287.00
2023-04-15T21:55:35.261Z,102287.00
2023-04-15T21:58:01.898Z,102283.28
2023-04-15T22:00:28.498Z,102285.16
2023-04-15T22:02:55.245Z,102288.97
2023-04-15T22:05:21.934Z,102289.22
2023-04-15T22:07:48.474Z,102288.53
2023-04-15T22:10:15.007Z,102289.53
2023-04-15T22:12:41.996Z,102298.56
2023-04-15T22:15:08.922Z,102301.56
2023-04-15T22:17:35.513Z,102296.19
2023-04-15T22:20:02.391Z,102303.53
2023-04-15T22:22:35.464Z,102302.84
2023-04-15T22:25:11.128Z,102304.66
2023-04-15T22:27:37.671Z,102311.03
2023-04-15T22:30:05.016Z,102304.09
2023-04-15T22:32:31.591Z,102305.06
2023-04-15T22:34:58.104Z,102303.38
2023-04-15T22:37:24.776Z,102312.44
2023-04-15T22:39:51.905Z,102308.06
2023-04-15T22:42:18.479Z,102313.56
2023-04-15T22:44:45.022Z,102313.72
2023-04-15T22:47:11.536Z,102315.56
2023-04-15T22:49:39.424Z,102321.06
2023-04-15T22:52:06.051Z,102321.19
2023-04-15T22:54:32.906Z,102321.34
2023-04-15T22:56:59.438Z,102326.75
2023-04-15T22:59:25.986Z,102328.69
2023-04-15T23:01:53.365Z,102335.09
2023-04-15T23:04:22.926Z,102337.03
2023-04-15T23:06:52.393Z,102341.59
2023-04-15T23:09:19.192Z,102343.56
2023-04-15T23:11:45.714Z,102348.13
2023-04-15T23:14:12.523Z,102346.38
2023-04-15T23:16:39.032Z,102348.38
2023-04-15T23:19:05.611Z,102348.38
2023-04-15T23:21:32.354Z,102356.72
2023-04-15T23:23:58.895Z,102347.78
2023-04-15T23:26:25.530Z,102355.84
2023-04-15T23:28:52.082Z,102355.13
2023-04-15T23:31:18.851Z,102362.47
2023-04-15T23:33:45.634Z,102358.06
2023-04-15T23:36:12.194Z,102358.19
2023-04-15T23:38:38.680Z,102365.56
2023-04-15T23:41:05.591Z,102363.72
2023-04-15T23:43:32.114Z,102362.03
2023-04-15T23:45:58.618Z,102364.81
2023-04-15T23:48:25.185Z,102368.50
2023-04-15T23:50:51.692Z,102361.44
2023-04-15T23:53:18.261Z,102361.53
2023-04-15T23:55:44.828Z,102369.75
2023-04-15T23:58:11.804Z,102370.63
